sensor_id;sensor_type;location;lat;lon;timestamp;P1;P2;P0
42510;PMS7003;28141;51.120;17.114;2022-07-24T00:02:42;14;5;3
42510;PMS7003;28141;51.120;17.114;2022-07-24T00:06:15;13;6;4
42510;PMS7003;28141;51.120;17.114;2022-07-24T00:09:18;14;7;4
42510;PMS7003;28141;51.120;17.114;2022-07-24T00:12:22;15;8;5
42510;PMS7003;28141;51.120;17.114;2022-07-24T00:15:26;13;7;5
42510;PMS7003;28141;51.120;17.114;2022-07-24T00:18:30;12;5;4
42510;PMS7003;28141;51.120;17.114;2022-07-24T00:21:33;13;6;5
42510;PMS7003;28141;51.120;17.114;2022-07-24T00:24:37;12;5;3
42510;PMS7003;28141;51.120;17.114;2022-07-24T00:27:41;13;5;4
42510;PMS7003;28141;51.120;17.114;2022-07-24T00:30:45;13;6;4
42510;PMS7003;28141;51.120;17.114;2022-07-24T00:33:49;12;5;4
42510;PMS7003;28141;51.120;17.114;2022-07-24T00:36:53;13;6;4
42510;PMS7003;28141;51.120;17.114;2022-07-24T00:40:22;14;7;4
42510;PMS7003;28141;51.120;17.114;2022-07-24T00:43:27;13;7;5
42510;PMS7003;28141;51.120;17.114;2022-07-24T00:46:31;13;6;5
42510;PMS7003;28141;51.120;17.114;2022-07-24T00:49:35;13;6;4
42510;PMS7003;28141;51.120;17.114;2022-07-24T00:52:39;11;4;3
42510;PMS7003;28141;51.120;17.114;2022-07-24T00:55:43;11;4;4
42510;PMS7003;28141;51.120;17.114;2022-07-24T00:58:48;14;6;4
42510;PMS7003;28141;51.120;17.114;2022-07-24T01:01:52;14;7;4
42510;PMS7003;28141;51.120;17.114;2022-07-24T01:04:55;13;6;4
42510;PMS7003;28141;51.120;17.114;2022-07-24T01:07:59;13;5;4
42510;PMS7003;28141;51.120;17.114;2022-07-24T01:11:04;14;7;5
42510;PMS7003;28141;51.120;17.114;2022-07-24T01:14:34;14;7;5
42510;PMS7003;28141;51.120;17.114;2022-07-24T01:17:39;13;6;4
42510;PMS7003;28141;51.120;17.114;2022-07-24T01:20:47;14;5;4
42510;PMS7003;28141;51.120;17.114;2022-07-24T01:23:52;13;7;5
42510;PMS7003;28141;51.120;17.114;2022-07-24T01:26:56;13;5;4
42510;PMS7003;28141;51.120;17.114;2022-07-24T01:30:00;13;7;4
42510;PMS7003;28141;51.120;17.114;2022-07-24T01:33:03;12;5;4
42510;PMS7003;28141;51.120;17.114;2022-07-24T01:36:07;14;6;4
42510;PMS7003;28141;51.120;17.114;2022-07-24T01:39:12;13;6;4
42510;PMS7003;28141;51.120;17.114;2022-07-24T01:42:15;15;8;4
42510;PMS7003;28141;51.120;17.114;2022-07-24T01:45:48;13;6;4
42510;PMS7003;28141;51.120;17.114;2022-07-24T01:48:51;12;5;4
42510;PMS7003;28141;51.120;17.114;2022-07-24T01:51:55;12;5;4
42510;PMS7003;28141;51.120;17.114;2022-07-24T01:54:59;13;5;3
42510;PMS7003;28141;51.120;17.114;2022-07-24T01:58:03;12;6;4
42510;PMS7003;28141;51.120;17.114;2022-07-24T02:01:07;13;6;4
42510;PMS7003;28141;51.120;17.114;2022-07-24T02:04:10;12;5;4
42510;PMS7003;28141;51.120;17.114;2022-07-24T02:07:14;11;5;3
42510;PMS7003;28141;51.120;17.114;2022-07-24T02:10:18;13;6;4
42510;PMS7003;28141;51.120;17.114;2022-07-24T02:13:22;11;4;3
42510;PMS7003;28141;51.120;17.114;2022-07-24T02:16:56;12;6;4
42510;PMS7003;28141;51.120;17.114;2022-07-24T02:20:00;12;5;3
42510;PMS7003;28141;51.120;17.114;2022-07-24T02:23:04;13;5;4
42510;PMS7003;28141;51.120;17.114;2022-07-24T02:26:07;14;6;4
42510;PMS7003;28141;51.120;17.114;2022-07-24T02:29:11;15;7;4
42510;PMS7003;28141;51.120;17.114;2022-07-24T02:32:15;14;6;4
42510;PMS7003;28141;51.120;17.114;2022-07-24T02:35:18;13;6;4
42510;PMS7003;28141;51.120;17.114;2022-07-24T02:38:22;14;6;4
42510;PMS7003;28141;51.120;17.114;2022-07-24T02:41:26;13;6;5
42510;PMS7003;28141;51.120;17.114;2022-07-24T02:44:29;12;6;4
42510;PMS7003;28141;51.120;17.114;2022-07-24T02:47:33;14;7;4
42510;PMS7003;28141;51.120;17.114;2022-07-24T02:51:04;14;7;4
42510;PMS7003;28141;51.120;17.114;2022-07-24T02:54:08;13;6;4
42510;PMS7003;28141;51.120;17.114;2022-07-24T02:57:11;14;6;4
42510;PMS7003;28141;51.120;17.114;2022-07-24T03:00:16;13;6;4
42510;PMS7003;28141;51.120;17.114;2022-07-24T03:03:20;13;6;4
42510;PMS7003;28141;51.120;17.114;2022-07-24T03:06:24;12;5;4
42510;PMS7003;28141;51.120;17.114;2022-07-24T03:09:27;14;7;5
42510;PMS7003;28141;51.120;17.114;2022-07-24T03:12:31;13;6;4
42510;PMS7003;28141;51.120;17.114;2022-07-24T03:15:35;13;7;4
42510;PMS7003;28141;51.120;17.114;2022-07-24T03:18:39;12;5;4
42510;PMS7003;28141;51.120;17.114;2022-07-24T03:22:14;14;6;3
42510;PMS7003;28141;51.120;17.114;2022-07-24T03:25:18;15;8;5
42510;PMS7003;28141;51.120;17.114;2022-07-24T03:28:22;16;8;4
42510;PMS7003;28141;51.120;17.114;2022-07-24T03:31:26;13;6;4
42510;PMS7003;28141;51.120;17.114;2022-07-24T03:34:29;12;6;4
42510;PMS7003;28141;51.120;17.114;2022-07-24T03:37:33;13;6;4
42510;PMS7003;28141;51.120;17.114;2022-07-24T03:40:37;15;7;5
42510;PMS7003;28141;51.120;17.114;2022-07-24T03:43:40;13;6;5
42510;PMS7003;28141;51.120;17.114;2022-07-24T03:46:45;13;6;4
42510;PMS7003;28141;51.120;17.114;2022-07-24T03:49:48;14;7;4
42510;PMS7003;28141;51.120;17.114;2022-07-24T03:52:52;14;7;4
42510;PMS7003;28141;51.120;17.114;2022-07-24T03:56:22;14;7;4
42510;PMS7003;28141;51.120;17.114;2022-07-24T03:59:26;14;6;4
42510;PMS7003;28141;51.120;17.114;2022-07-24T04:02:30;14;6;4
42510;PMS7003;28141;51.120;17.114;2022-07-24T04:05:34;13;6;4
42510;PMS7003;28141;51.120;17.114;2022-07-24T04:08:38;12;5;5
42510;PMS7003;28141;51.120;17.114;2022-07-24T04:11:42;14;6;4
42510;PMS7003;28141;51.120;17.114;2022-07-24T04:14:49;13;7;4
42510;PMS7003;28141;51.120;17.114;2022-07-24T04:17:52;12;6;4
42510;PMS7003;28141;51.120;17.114;2022-07-24T04:20:56;12;5;3
42510;PMS7003;28141;51.120;17.114;2022-07-24T04:24:00;16;8;5
42510;PMS7003;28141;51.120;17.114;2022-07-24T04:27:30;15;7;4
42510;PMS7003;28141;51.120;17.114;2022-07-24T04:30:34;13;6;4
42510;PMS7003;28141;51.120;17.114;2022-07-24T04:33:38;13;6;4
42510;PMS7003;28141;51.120;17.114;2022-07-24T04:36:41;13;6;4
42510;PMS7003;28141;51.120;17.114;2022-07-24T04:39:45;16;8;5
42510;PMS7003;28141;51.120;17.114;2022-07-24T04:42:49;13;7;4
42510;PMS7003;28141;51.120;17.114;2022-07-24T04:45:52;13;6;4
42510;PMS7003;28141;51.120;17.114;2022-07-24T04:48:56;14;8;4
42510;PMS7003;28141;51.120;17.114;2022-07-24T04:52:00;14;6;5
42510;PMS7003;28141;51.120;17.114;2022-07-24T04:55:04;14;7;5
42510;PMS7003;28141;51.120;17.114;2022-07-24T04:58:09;13;7;5
42510;PMS7003;28141;51.120;17.114;2022-07-24T05:01:38;14;6;4
42510;PMS7003;28141;51.120;17.114;2022-07-24T05:04:42;12;6;4
42510;PMS7003;28141;51.120;17.114;2022-07-24T05:07:46;13;6;4
42510;PMS7003;28141;51.120;17.114;2022-07-24T05:10:50;12;6;4
42510;PMS7003;28141;51.120;17.114;2022-07-24T05:13:54;13;6;4
42510;PMS7003;28141;51.120;17.114;2022-07-24T05:16:57;13;6;4
42510;PMS7003;28141;51.120;17.114;2022-07-24T05:20:02;14;6;4
42510;PMS7003;28141;51.120;17.114;2022-07-24T05:23:06;13;5;4
42510;PMS7003;28141;51.120;17.114;2022-07-24T05:26:10;13;6;4
42510;PMS7003;28141;51.120;17.114;2022-07-24T05:29:14;13;6;4
42510;PMS7003;28141;51.120;17.114;2022-07-24T05:32:18;13;6;4
42510;PMS7003;28141;51.120;17.114;2022-07-24T05:35:47;13;6;4
42510;PMS7003;28141;51.120;17.114;2022-07-24T05:38:51;13;6;4
42510;PMS7003;28141;51.120;17.114;2022-07-24T05:41:55;14;7;5
42510;PMS7003;28141;51.120;17.114;2022-07-24T05:44:59;13;6;4
42510;PMS7003;28141;51.120;17.114;2022-07-24T05:48:03;15;6;4
42510;PMS7003;28141;51.120;17.114;2022-07-24T05:51:07;12;5;4
42510;PMS7003;28141;51.120;17.114;2022-07-24T05:54:10;13;6;5
42510;PMS7003;28141;51.120;17.114;2022-07-24T05:57:14;11;5;4
42510;PMS7003;28141;51.120;17.114;2022-07-24T06:00:18;13;6;4
42510;PMS7003;28141;51.120;17.114;2022-07-24T06:03:22;13;6;4
42510;PMS7003;28141;51.120;17.114;2022-07-24T06:06:25;12;5;4
42510;PMS7003;28141;51.120;17.114;2022-07-24T06:09:55;13;6;4
42510;PMS7003;28141;51.120;17.114;2022-07-24T06:12:59;12;5;4
42510;PMS7003;28141;51.120;17.114;2022-07-24T06:16:03;12;5;4
42510;PMS7003;28141;51.120;17.114;2022-07-24T06:19:07;13;6;4
42510;PMS7003;28141;51.120;17.114;2022-07-24T06:22:11;12;5;4
42510;PMS7003;28141;51.120;17.114;2022-07-24T06:25:15;11;5;4
42510;PMS7003;28141;51.120;17.114;2022-07-24T06:28:20;12;6;4
42510;PMS7003;28141;51.120;17.114;2022-07-24T06:31:24;12;5;4
42510;PMS7003;28141;51.120;17.114;2022-07-24T06:34:27;13;6;4
42510;PMS7003;28141;51.120;17.114;2022-07-24T06:37:31;14;6;4
42510;PMS7003;28141;51.120;17.114;2022-07-24T06:40:35;13;6;4
42510;PMS7003;28141;51.120;17.114;2022-07-24T06:44:06;11;4;3
42510;PMS7003;28141;51.120;17.114;2022-07-24T06:47:09;12;5;3
42510;PMS7003;28141;51.120;17.114;2022-07-24T06:50:13;13;5;4
42510;PMS7003;28141;51.120;17.114;2022-07-24T06:53:17;15;6;4
42510;PMS7003;28141;51.120;17.114;2022-07-24T06:56:21;12;6;4
42510;PMS7003;28141;51.120;17.114;2022-07-24T06:59:25;12;6;4
42510;PMS7003;28141;51.120;17.114;2022-07-24T07:02:29;11;4;3
42510;PMS7003;28141;51.120;17.114;2022-07-24T07:05:32;11;5;3
42510;PMS7003;28141;51.120;17.114;2022-07-24T07:08:37;11;4;3
42510;PMS7003;28141;51.120;17.114;2022-07-24T07:11:40;12;6;4
42510;PMS7003;28141;51.120;17.114;2022-07-24T07:14:44;12;5;4
42510;PMS7003;28141;51.120;17.114;2022-07-24T07:18:16;12;5;3
42510;PMS7003;28141;51.120;17.114;2022-07-24T07:21:20;13;5;3
42510;PMS7003;28141;51.120;17.114;2022-07-24T07:24:23;12;5;3
42510;PMS7003;28141;51.120;17.114;2022-07-24T07:27:27;12;5;4
42510;PMS7003;28141;51.120;17.114;2022-07-24T07:30:31;11;4;3
42510;PMS7003;28141;51.120;17.114;2022-07-24T07:33:35;11;4;3
42510;PMS7003;28141;51.120;17.114;2022-07-24T07:36:38;13;5;4
42510;PMS7003;28141;51.120;17.114;2022-07-24T07:39:42;11;4;4
42510;PMS7003;28141;51.120;17.114;2022-07-24T07:42:46;11;4;3
42510;PMS7003;28141;51.120;17.114;2022-07-24T07:45:50;11;4;3
42510;PMS7003;28141;51.120;17.114;2022-07-24T07:48:53;11;4;3
42510;PMS7003;28141;51.120;17.114;2022-07-24T07:52:25;11;5;3
42510;PMS7003;28141;51.120;17.114;2022-07-24T07:55:29;11;4;3
42510;PMS7003;28141;51.120;17.114;2022-07-24T07:58:32;10;3;2
42510;PMS7003;28141;51.120;17.114;2022-07-24T08:01:37;11;4;3
42510;PMS7003;28141;51.120;17.114;2022-07-24T08:04:40;11;4;3
42510;PMS7003;28141;51.120;17.114;2022-07-24T08:07:45;11;4;3
42510;PMS7003;28141;51.120;17.114;2022-07-24T08:10:48;11;4;3
42510;PMS7003;28141;51.120;17.114;2022-07-24T08:13:52;11;4;3
42510;PMS7003;28141;51.120;17.114;2022-07-24T08:16:56;11;4;3
42510;PMS7003;28141;51.120;17.114;2022-07-24T08:19:59;12;5;3
42510;PMS7003;28141;51.120;17.114;2022-07-24T08:23:03;10;3;2
42510;PMS7003;28141;51.120;17.114;2022-07-24T08:26:33;11;5;3
42510;PMS7003;28141;51.120;17.114;2022-07-24T08:29:37;11;4;3
42510;PMS7003;28141;51.120;17.114;2022-07-24T08:32:41;10;3;3
42510;PMS7003;28141;51.120;17.114;2022-07-24T08:35:46;10;3;3
42510;PMS7003;28141;51.120;17.114;2022-07-24T08:38:50;10;4;3
42510;PMS7003;28141;51.120;17.114;2022-07-24T08:41:55;11;4;3
42510;PMS7003;28141;51.120;17.114;2022-07-24T08:44:59;10;3;2
42510;PMS7003;28141;51.120;17.114;2022-07-24T08:48:03;11;5;4
42510;PMS7003;28141;51.120;17.114;2022-07-24T08:51:09;11;4;3
42510;PMS7003;28141;51.120;17.114;2022-07-24T08:54:14;10;4;3
42510;PMS7003;28141;51.120;17.114;2022-07-24T08:57:44;10;3;2
42510;PMS7003;28141;51.120;17.114;2022-07-24T09:00:48;10;4;2
42510;PMS7003;28141;51.120;17.114;2022-07-24T09:03:52;10;3;2
42510;PMS7003;28141;51.120;17.114;2022-07-24T09:06:56;11;5;3
42510;PMS7003;28141;51.120;17.114;2022-07-24T11:21:31;9;2;2
42510;PMS7003;28141;51.120;17.114;2022-07-24T11:28:42;9;3;2
42510;PMS7003;28141;51.120;17.114;2022-07-24T11:35:34;10;3;2
42510;PMS7003;28141;51.120;17.114;2022-07-24T11:39:16;9;2;1
42510;PMS7003;28141;51.120;17.114;2022-07-24T11:42:31;8;2;1
42510;PMS7003;28141;51.120;17.114;2022-07-24T11:45:51;8;2;1
42510;PMS7003;28141;51.120;17.114;2022-07-24T11:49:07;10;2;1
42510;PMS7003;28141;51.120;17.114;2022-07-24T11:52:41;9;3;1
42510;PMS7003;28141;51.120;17.114;2022-07-24T11:55:45;9;2;2
42510;PMS7003;28141;51.120;17.114;2022-07-24T11:58:48;8;2;1
42510;PMS7003;28141;51.120;17.114;2022-07-24T12:01:55;9;2;1
42510;PMS7003;28141;51.120;17.114;2022-07-24T12:05:08;9;2;1
42510;PMS7003;28141;51.120;17.114;2022-07-24T12:08:16;9;2;2
42510;PMS7003;28141;51.120;17.114;2022-07-24T12:11:22;8;1;1
42510;PMS7003;28141;51.120;17.114;2022-07-24T12:14:26;8;2;1
42510;PMS7003;28141;51.120;17.114;2022-07-24T12:18:01;8;2;1
42510;PMS7003;28141;51.120;17.114;2022-07-24T12:21:09;10;4;2
42510;PMS7003;28141;51.120;17.114;2022-07-24T12:24:12;9;3;2
42510;PMS7003;28141;51.120;17.114;2022-07-24T12:27:39;8;2;2
42510;PMS7003;28141;51.120;17.114;2022-07-24T12:30:32;8;2;1
42510;PMS7003;28141;51.120;17.114;2022-07-24T12:33:36;7;1;1
42510;PMS7003;28141;51.120;17.114;2022-07-24T12:43:45;8;2;1
42510;PMS7003;28141;51.120;17.114;2022-07-24T12:46:48;8;2;2
42510;PMS7003;28141;51.120;17.114;2022-07-24T12:50:23;10;2;1
42510;PMS7003;28141;51.120;17.114;2022-07-24T12:53:27;9;2;1
42510;PMS7003;28141;51.120;17.114;2022-07-24T12:56:35;9;2;1
42510;PMS7003;28141;51.120;17.114;2022-07-24T12:59:39;8;2;1
42510;PMS7003;28141;51.120;17.114;2022-07-24T13:02:44;8;2;1
42510;PMS7003;28141;51.120;17.114;2022-07-24T13:05:48;9;2;1
42510;PMS7003;28141;51.120;17.114;2022-07-24T13:08:59;8;2;1
42510;PMS7003;28141;51.120;17.114;2022-07-24T13:12:02;9;2;1
42510;PMS7003;28141;51.120;17.114;2022-07-24T13:15:08;9;2;1
42510;PMS7003;28141;51.120;17.114;2022-07-24T13:18:13;9;2;1
42510;PMS7003;28141;51.120;17.114;2022-07-24T13:21:43;9;2;1
42510;PMS7003;28141;51.120;17.114;2022-07-24T13:24:47;9;2;1
42510;PMS7003;28141;51.120;17.114;2022-07-24T13:27:51;8;1;1
42510;PMS7003;28141;51.120;17.114;2022-07-24T13:30:54;7;1;1
42510;PMS7003;28141;51.120;17.114;2022-07-24T13:33:58;8;2;2
42510;PMS7003;28141;51.120;17.114;2022-07-24T13:37:02;8;1;0
42510;PMS7003;28141;51.120;17.114;2022-07-24T13:40:08;8;1;0
42510;PMS7003;28141;51.120;17.114;2022-07-24T13:43:16;9;2;1
42510;PMS7003;28141;51.120;17.114;2022-07-24T13:46:19;8;1;1
42510;PMS7003;28141;51.120;17.114;2022-07-24T13:49:25;8;1;1
42510;PMS7003;28141;51.120;17.114;2022-07-24T13:52:55;8;1;0
42510;PMS7003;28141;51.120;17.114;2022-07-24T13:55:58;8;2;1
42510;PMS7003;28141;51.120;17.114;2022-07-24T13:59:01;8;2;1
42510;PMS7003;28141;51.120;17.114;2022-07-24T14:02:05;9;2;1
42510;PMS7003;28141;51.120;17.114;2022-07-24T14:05:08;9;2;1
42510;PMS7003;28141;51.120;17.114;2022-07-24T14:08:12;8;1;1
42510;PMS7003;28141;51.120;17.114;2022-07-24T14:11:15;8;2;0
42510;PMS7003;28141;51.120;17.114;2022-07-24T14:14:19;8;1;1
42510;PMS7003;28141;51.120;17.114;2022-07-24T14:17:22;8;2;1
42510;PMS7003;28141;51.120;17.114;2022-07-24T14:20:25;8;1;1
42510;PMS7003;28141;51.120;17.114;2022-07-24T14:23:29;8;1;1
42510;PMS7003;28141;51.120;17.114;2022-07-24T14:27:00;7;1;0
42510;PMS7003;28141;51.120;17.114;2022-07-24T14:30:04;8;1;1
42510;PMS7003;28141;51.120;17.114;2022-07-24T14:33:08;8;2;1
42510;PMS7003;28141;51.120;17.114;2022-07-24T14:36:12;8;1;1
42510;PMS7003;28141;51.120;17.114;2022-07-24T14:39:15;9;2;1
42510;PMS7003;28141;51.120;17.114;2022-07-24T14:42:19;8;2;1
42510;PMS7003;28141;51.120;17.114;2022-07-24T14:45:22;8;1;1
42510;PMS7003;28141;51.120;17.114;2022-07-24T14:48:26;7;0;0
42510;PMS7003;28141;51.120;17.114;2022-07-24T14:51:29;8;1;1
42510;PMS7003;28141;51.120;17.114;2022-07-24T14:54:33;8;1;1
42510;PMS7003;28141;51.120;17.114;2022-07-24T14:57:36;8;1;1
42510;PMS7003;28141;51.120;17.114;2022-07-24T15:00:40;9;2;1
42510;PMS7003;28141;51.120;17.114;2022-07-24T15:04:09;8;2;0
42510;PMS7003;28141;51.120;17.114;2022-07-24T15:07:12;8;1;0
42510;PMS7003;28141;51.120;17.114;2022-07-24T15:10:16;7;0;0
42510;PMS7003;28141;51.120;17.114;2022-07-24T15:13:19;8;1;1
42510;PMS7003;28141;51.120;17.114;2022-07-24T15:16:22;7;0;0
42510;PMS7003;28141;51.120;17.114;2022-07-24T15:19:26;7;1;1
42510;PMS7003;28141;51.120;17.114;2022-07-24T15:22:29;8;1;0
42510;PMS7003;28141;51.120;17.114;2022-07-24T15:25:33;7;1;1
42510;PMS7003;28141;51.120;17.114;2022-07-24T15:28:37;6;0;0
42510;PMS7003;28141;51.120;17.114;2022-07-24T15:31:40;8;1;0
42510;PMS7003;28141;51.120;17.114;2022-07-24T15:34:44;7;0;0
42510;PMS7003;28141;51.120;17.114;2022-07-24T15:38:15;7;1;0
42510;PMS7003;28141;51.120;17.114;2022-07-24T15:41:19;7;1;0
42510;PMS7003;28141;51.120;17.114;2022-07-24T15:44:23;7;0;0
42510;PMS7003;28141;51.120;17.114;2022-07-24T15:47:26;7;0;0
42510;PMS7003;28141;51.120;17.114;2022-07-24T15:50:29;7;0;0
42510;PMS7003;28141;51.120;17.114;2022-07-24T15:53:33;8;1;1
42510;PMS7003;28141;51.120;17.114;2022-07-24T15:56:37;8;1;0
42510;PMS7003;28141;51.120;17.114;2022-07-24T15:59:41;7;1;1
42510;PMS7003;28141;51.120;17.114;2022-07-24T16:02:44;7;0;0
42510;PMS7003;28141;51.120;17.114;2022-07-24T16:05:48;7;0;0
42510;PMS7003;28141;51.120;17.114;2022-07-24T16:08:51;7;1;0
42510;PMS7003;28141;51.120;17.114;2022-07-24T16:12:21;8;1;0
42510;PMS7003;28141;51.120;17.114;2022-07-24T16:15:24;7;1;0
42510;PMS7003;28141;51.120;17.114;2022-07-24T16:18:27;7;0;0
42510;PMS7003;28141;51.120;17.114;2022-07-24T16:21:32;7;0;0
42510;PMS7003;28141;51.120;17.114;2022-07-24T16:24:36;7;1;0
42510;PMS7003;28141;51.120;17.114;2022-07-24T16:27:40;7;1;1
42510;PMS7003;28141;51.120;17.114;2022-07-24T16:30:43;6;0;0
42510;PMS7003;28141;51.120;17.114;2022-07-24T16:33:47;7;0;0
42510;PMS7003;28141;51.120;17.114;2022-07-24T16:36:50;7;1;0
42510;PMS7003;28141;51.120;17.114;2022-07-24T16:39:54;7;1;0
42510;PMS7003;28141;51.120;17.114;2022-07-24T16:42:57;7;1;0
42510;PMS7003;28141;51.120;17.114;2022-07-24T16:46:27;7;1;0
42510;PMS7003;28141;51.120;17.114;2022-07-24T16:49:30;7;0;0
42510;PMS7003;28141;51.120;17.114;2022-07-24T16:52:33;7;1;1
42510;PMS7003;28141;51.120;17.114;2022-07-24T16:55:37;7;0;0
42510;PMS7003;28141;51.120;17.114;2022-07-24T16:58:40;7;0;0
42510;PMS7003;28141;51.120;17.114;2022-07-24T17:01:46;7;0;0
42510;PMS7003;28141;51.120;17.114;2022-07-24T17:04:50;7;0;0
42510;PMS7003;28141;51.120;17.114;2022-07-24T17:07:54;7;0;0
42510;PMS7003;28141;51.120;17.114;2022-07-24T17:10:57;7;0;0
42510;PMS7003;28141;51.120;17.114;2022-07-24T17:14:04;7;1;0
42510;PMS7003;28141;51.120;17.114;2022-07-24T17:17:34;7;0;0
42510;PMS7003;28141;51.120;17.114;2022-07-24T17:20:50;6;0;0
42510;PMS7003;28141;51.120;17.114;2022-07-24T17:23:53;7;1;0
42510;PMS7003;28141;51.120;17.114;2022-07-24T17:26:56;7;0;0
42510;PMS7003;28141;51.120;17.114;2022-07-24T17:30:00;7;0;0
42510;PMS7003;28141;51.120;17.114;2022-07-24T17:33:06;8;1;0
42510;PMS7003;28141;51.120;17.114;2022-07-24T17:36:09;7;0;0
42510;PMS7003;28141;51.120;17.114;2022-07-24T17:39:13;7;0;0
42510;PMS7003;28141;51.120;17.114;2022-07-24T17:42:16;7;1;0
42510;PMS7003;28141;51.120;17.114;2022-07-24T17:45:47;7;0;0
42510;PMS7003;28141;51.120;17.114;2022-07-24T17:48:50;7;0;0
42510;PMS7003;28141;51.120;17.114;2022-07-24T17:51:53;8;0;0
42510;PMS7003;28141;51.120;17.114;2022-07-24T17:54:57;7;0;0
42510;PMS7003;28141;51.120;17.114;2022-07-24T17:58:01;7;0;0
42510;PMS7003;28141;51.120;17.114;2022-07-24T18:01:05;7;1;0
42510;PMS7003;28141;51.120;17.114;2022-07-24T18:04:08;7;0;0
42510;PMS7003;28141;51.120;17.114;2022-07-24T18:07:12;6;0;0
42510;PMS7003;28141;51.120;17.114;2022-07-24T18:10:15;7;0;0
42510;PMS7003;28141;51.120;17.114;2022-07-24T18:13:19;7;0;0
42510;PMS7003;28141;51.120;17.114;2022-07-24T18:16:22;7;1;0
42510;PMS7003;28141;51.120;17.114;2022-07-24T18:19:52;7;1;1
42510;PMS7003;28141;51.120;17.114;2022-07-24T18:22:55;7;0;0
42510;PMS7003;28141;51.120;17.114;2022-07-24T18:25:59;7;0;0
42510;PMS7003;28141;51.120;17.114;2022-07-24T18:29:03;7;0;0
42510;PMS7003;28141;51.120;17.114;2022-07-24T18:32:07;7;0;0
42510;PMS7003;28141;51.120;17.114;2022-07-24T18:35:11;7;1;0
42510;PMS7003;28141;51.120;17.114;2022-07-24T18:38:14;7;1;0
42510;PMS7003;28141;51.120;17.114;2022-07-24T18:41:18;7;0;0
42510;PMS7003;28141;51.120;17.114;2022-07-24T18:44:22;7;0;0
42510;PMS7003;28141;51.120;17.114;2022-07-24T18:47:25;7;0;0
42510;PMS7003;28141;51.120;17.114;2022-07-24T18:50:29;6;0;0
42510;PMS7003;28141;51.120;17.114;2022-07-24T18:53:58;7;0;0
42510;PMS7003;28141;51.120;17.114;2022-07-24T18:57:02;7;1;0
42510;PMS7003;28141;51.120;17.114;2022-07-24T19:00:06;6;0;0
42510;PMS7003;28141;51.120;17.114;2022-07-24T19:03:13;6;0;0
42510;PMS7003;28141;51.120;17.114;2022-07-24T19:06:17;7;0;0
42510;PMS7003;28141;51.120;17.114;2022-07-24T19:09:20;6;0;0
42510;PMS7003;28141;51.120;17.114;2022-07-24T19:12:24;8;1;1
42510;PMS7003;28141;51.120;17.114;2022-07-24T19:15:28;7;0;0
42510;PMS7003;28141;51.120;17.114;2022-07-24T19:18:31;7;0;0
42510;PMS7003;28141;51.120;17.114;2022-07-24T19:22:05;8;1;0
42510;PMS7003;28141;51.120;17.114;2022-07-24T19:25:08;7;0;0
42510;PMS7003;28141;51.120;17.114;2022-07-24T19:28:12;7;1;0
42510;PMS7003;28141;51.120;17.114;2022-07-24T19:31:15;8;1;1
42510;PMS7003;28141;51.120;17.114;2022-07-24T19:34:18;8;1;1
42510;PMS7003;28141;51.120;17.114;2022-07-24T19:37:22;8;1;1
42510;PMS7003;28141;51.120;17.114;2022-07-24T19:40:26;7;0;0
42510;PMS7003;28141;51.120;17.114;2022-07-24T19:43:29;7;0;0
42510;PMS7003;28141;51.120;17.114;2022-07-24T19:46:33;7;1;0
42510;PMS7003;28141;51.120;17.114;2022-07-24T19:49:36;7;1;0
42510;PMS7003;28141;51.120;17.114;2022-07-24T19:52:40;7;1;0
42510;PMS7003;28141;51.120;17.114;2022-07-24T19:56:09;7;1;0
42510;PMS7003;28141;51.120;17.114;2022-07-24T19:59:12;7;1;0
42510;PMS7003;28141;51.120;17.114;2022-07-24T20:02:16;7;1;0
42510;PMS7003;28141;51.120;17.114;2022-07-24T20:05:19;8;2;1
42510;PMS7003;28141;51.120;17.114;2022-07-24T20:08:23;7;0;0
42510;PMS7003;28141;51.120;17.114;2022-07-24T20:11:26;7;1;0
42510;PMS7003;28141;51.120;17.114;2022-07-24T20:14:30;8;1;0
42510;PMS7003;28141;51.120;17.114;2022-07-24T20:17:34;7;1;0
42510;PMS7003;28141;51.120;17.114;2022-07-24T20:20:37;7;0;0
42510;PMS7003;28141;51.120;17.114;2022-07-24T20:23:41;6;0;0
42510;PMS7003;28141;51.120;17.114;2022-07-24T20:26:44;7;1;0
42510;PMS7003;28141;51.120;17.114;2022-07-24T20:29:47;6;0;0
42510;PMS7003;28141;51.120;17.114;2022-07-24T20:32:51;7;0;0
42510;PMS7003;28141;51.120;17.114;2022-07-24T20:35:54;7;0;0
42510;PMS7003;28141;51.120;17.114;2022-07-24T20:39:25;6;1;0
42510;PMS7003;28141;51.120;17.114;2022-07-24T20:42:28;6;0;0
42510;PMS7003;28141;51.120;17.114;2022-07-24T20:45:31;6;1;0
42510;PMS7003;28141;51.120;17.114;2022-07-24T20:48:35;7;1;0
42510;PMS7003;28141;51.120;17.114;2022-07-24T20:51:39;6;0;0
42510;PMS7003;28141;51.120;17.114;2022-07-24T20:54:42;6;0;0
42510;PMS7003;28141;51.120;17.114;2022-07-24T20:57:45;8;2;0
42510;PMS7003;28141;51.120;17.114;2022-07-24T21:00:49;7;1;0
42510;PMS7003;28141;51.120;17.114;2022-07-24T21:03:52;7;1;0
42510;PMS7003;28141;51.120;17.114;2022-07-24T21:07:21;7;1;0
42510;PMS7003;28141;51.120;17.114;2022-07-24T21:10:24;7;1;0
42510;PMS7003;28141;51.120;17.114;2022-07-24T21:13:27;6;0;0
42510;PMS7003;28141;51.120;17.114;2022-07-24T21:16:31;6;0;0
42510;PMS7003;28141;51.120;17.114;2022-07-24T21:19:35;7;1;1
42510;PMS7003;28141;51.120;17.114;2022-07-24T21:22:38;6;1;0
42510;PMS7003;28141;51.120;17.114;2022-07-24T21:25:42;8;2;1
42510;PMS7003;28141;51.120;17.114;2022-07-24T21:28:45;7;0;0
42510;PMS7003;28141;51.120;17.114;2022-07-24T21:31:48;8;1;1
42510;PMS7003;28141;51.120;17.114;2022-07-24T21:34:52;8;1;1
42510;PMS7003;28141;51.120;17.114;2022-07-24T21:38:24;7;1;1
42510;PMS7003;28141;51.120;17.114;2022-07-24T21:41:30;7;1;0
42510;PMS7003;28141;51.120;17.114;2022-07-24T21:44:33;7;0;0
42510;PMS7003;28141;51.120;17.114;2022-07-24T21:47:36;7;1;1
42510;PMS7003;28141;51.120;17.114;2022-07-24T21:50:40;8;1;1
42510;PMS7003;28141;51.120;17.114;2022-07-24T21:53:43;8;1;0
42510;PMS7003;28141;51.120;17.114;2022-07-24T21:56:47;7;0;0
42510;PMS7003;28141;51.120;17.114;2022-07-24T21:59:50;8;0;0
42510;PMS7003;28141;51.120;17.114;2022-07-24T22:02:54;8;1;0
42510;PMS7003;28141;51.120;17.114;2022-07-24T22:05:57;9;1;1
42510;PMS7003;28141;51.120;17.114;2022-07-24T22:09:00;8;1;1
42510;PMS7003;28141;51.120;17.114;2022-07-24T22:12:31;8;1;1
42510;PMS7003;28141;51.120;17.114;2022-07-24T22:15:34;7;0;0
42510;PMS7003;28141;51.120;17.114;2022-07-24T22:18:38;7;1;1
42510;PMS7003;28141;51.120;17.114;2022-07-24T22:21:41;7;1;0
42510;PMS7003;28141;51.120;17.114;2022-07-24T22:24:44;8;1;1
42510;PMS7003;28141;51.120;17.114;2022-07-24T22:27:48;8;0;0
42510;PMS7003;28141;51.120;17.114;2022-07-24T22:30:51;8;1;1
42510;PMS7003;28141;51.120;17.114;2022-07-24T22:33:56;7;1;0
42510;PMS7003;28141;51.120;17.114;2022-07-24T22:37:00;7;1;0
42510;PMS7003;28141;51.120;17.114;2022-07-24T22:40:07;9;2;1
42510;PMS7003;28141;51.120;17.114;2022-07-24T22:43:39;7;0;0
42510;PMS7003;28141;51.120;17.114;2022-07-24T22:46:42;8;1;0
42510;PMS7003;28141;51.120;17.114;2022-07-24T22:49:48;7;1;1
42510;PMS7003;28141;51.120;17.114;2022-07-24T22:52:52;8;2;1
42510;PMS7003;28141;51.120;17.114;2022-07-24T22:55:56;7;1;1
42510;PMS7003;28141;51.120;17.114;2022-07-24T22:59:02;8;1;0